Terminal Aerodrome Forecast
Issued by NWS

Current Version | Previous Version | Text Only | Print | Product List | Glossary On
Versions: 1 2 3 4 5 6 7 8 9 10 11 12 13 14 15 16 17 18 19 20 21 22 23 24 25 26 27 28 29 30 31 32 33 34 35 36 37 38 39 40 41 42 43 44 45 46 47 48 49 50
000
FTUS43 KDMX 241517 AAA
TAFMCW
TAF AMD
KMCW 241517Z 2415/2512 09010KT 3SM BR OVC006
     FM241800 11011G18KT 1SM -SN OVC007
     FM242100 12007KT 1/2SM -SN FG OVC004
     FM250200 25010G19KT 5SM -SN OVC006
     FM250600 28018G26KT 5SM BLSN BKN011=

USA.gov is the U.S. government's official web portal to all federal, state and local government web resources and services.